createdAt,value
2022-09-29T00:00:08.804Z,3.00
2022-09-29T00:02:55.963Z,3.57
2022-09-29T00:05:49.705Z,3.73
2022-09-29T00:08:36.631Z,3.70
2022-09-29T00:11:23.457Z,4.10
2022-09-29T00:14:10.274Z,4.63
2022-09-29T00:16:57.159Z,4.57
2022-09-29T00:19:43.900Z,4.93
2022-09-29T00:22:32.288Z,5.37
2022-09-29T00:25:19.078Z,4.30
2022-09-29T00:28:06.130Z,4.90
2022-09-29T00:30:53.171Z,3.83
2022-09-29T00:33:40.337Z,4.40
2022-09-29T00:36:29.949Z,4.13
2022-09-29T00:39:18.044Z,3.90
2022-09-29T00:42:04.833Z,3.77
2022-09-29T00:44:56.792Z,3.50
2022-09-29T00:47:44.878Z,3.90
2022-09-29T00:50:36.133Z,3.30
2022-09-29T00:53:23.746Z,3.70
2022-09-29T00:56:13.240Z,3.60
2022-09-29T00:59:02.387Z,3.60
2022-09-29T01:01:49.299Z,3.40
2022-09-29T01:04:36.883Z,3.60
2022-09-29T01:07:27.353Z,3.40
2022-09-29T01:10:17.249Z,4.17
2022-09-29T01:13:05.759Z,4.90
2022-09-29T01:15:52.917Z,4.50
2022-09-29T01:18:40.330Z,4.40
2022-09-29T01:21:31.560Z,4.60
2022-09-29T01:24:57.218Z,4.40
2022-09-29T01:28:04.680Z,4.20
2022-09-29T01:31:04.306Z,3.90
2022-09-29T01:33:57.501Z,4.03
2022-09-29T01:36:53.535Z,4.03
2022-09-29T01:39:43.619Z,3.37
2022-09-29T01:42:34.349Z,3.80
2022-09-29T01:45:25.309Z,4.97
2022-09-29T01:48:16.366Z,3.20
2022-09-29T01:51:06.814Z,3.43
2022-09-29T01:53:55.271Z,3.43
2022-09-29T01:56:45.018Z,3.60
2022-09-29T01:59:38.246Z,3.30
2022-09-29T02:02:29.570Z,3.90
2022-09-29T02:05:21.584Z,3.47
2022-09-29T02:08:13.535Z,3.17
2022-09-29T02:11:04.710Z,3.37
2022-09-29T02:13:55.506Z,3.27
2022-09-29T02:16:45.181Z,3.47
2022-09-29T02:19:33.760Z,3.20
2022-09-29T02:22:22.123Z,3.43
2022-09-29T02:25:12.116Z,2.90
2022-09-29T02:27:58.958Z,3.40
2022-09-29T02:30:46.202Z,3.33
2022-09-29T02:33:32.726Z,3.37
2022-09-29T02:36:23.508Z,3.13
2022-09-29T02:39:17.131Z,3.20
2022-09-29T02:42:15.054Z,3.60
2022-09-29T02:45:20.509Z,3.60
2022-09-29T02:48:14.184Z,3.80
2022-09-29T02:51:07.574Z,3.40
2022-09-29T02:54:15.565Z,3.57
2022-09-29T02:57:08.886Z,3.60
2022-09-29T03:00:06.427Z,3.53
2022-09-29T03:02:53.428Z,3.93
2022-09-29T03:05:40.737Z,3.30
2022-09-29T03:08:27.796Z,3.73
2022-09-29T03:11:16.419Z,4.00
2022-09-29T03:14:06.591Z,4.57
2022-09-29T03:16:53.429Z,4.00
2022-09-29T03:19:40.448Z,3.70
2022-09-29T03:22:27.337Z,4.50
2022-09-29T03:25:14.537Z,3.90
2022-09-29T03:28:01.314Z,4.17
2022-09-29T03:30:49.856Z,4.00
2022-09-29T03:33:38.420Z,3.80
2022-09-29T03:36:25.252Z,4.23
2022-09-29T03:39:12.218Z,3.63
2022-09-29T03:41:59.285Z,3.83
2022-09-29T03:44:46.285Z,3.90
2022-09-29T03:47:34.320Z,3.23
2022-09-29T03:50:21.260Z,3.30
2022-09-29T03:53:08.830Z,3.37
2022-09-29T03:55:55.250Z,3.63
2022-09-29T03:58:42.576Z,3.50
2022-09-29T04:01:29.797Z,3.77
2022-09-29T04:04:18.184Z,3.90
2022-09-29T04:07:05.044Z,3.50
2022-09-29T04:09:51.947Z,3.50
2022-09-29T04:12:38.959Z,3.93
2022-09-29T04:15:25.954Z,3.90
2022-09-29T04:18:13.027Z,3.73
2022-09-29T04:21:01.624Z,4.13
2022-09-29T04:23:48.587Z,3.87
2022-09-29T04:26:35.610Z,5.63
2022-09-29T04:29:22.960Z,5.37
2022-09-29T04:32:10.228Z,5.73
2022-09-29T04:34:57.765Z,5.47
2022-09-29T04:37:45.764Z,5.60
2022-09-29T04:40:32.684Z,6.00
2022-09-29T04:43:19.807Z,5.67
2022-09-29T04:46:07.897Z,6.73
2022-09-29T04:48:54.851Z,6.67
2022-09-29T04:51:41.872Z,6.73
2022-09-29T04:54:37.733Z,5.83
2022-09-29T04:57:25.322Z,4.93
2022-09-29T05:00:13.208Z,5.07
2022-09-29T05:03:00.419Z,5.47
2022-09-29T05:05:47.280Z,5.00
2022-09-29T05:08:34.235Z,4.30
2022-09-29T05:11:22.673Z,4.60
2022-09-29T05:14:09.689Z,4.50
2022-09-29T05:16:56.766Z,4.70
2022-09-29T05:19:43.524Z,4.23
2022-09-29T05:22:30.670Z,3.90
2022-09-29T05:25:17.816Z,4.33
2022-09-29T05:28:06.222Z,4.53
2022-09-29T05:30:53.282Z,5.03
2022-09-29T05:33:40.462Z,4.73
2022-09-29T05:36:27.186Z,5.07
2022-09-29T05:39:14.997Z,4.37
2022-09-29T05:42:02.411Z,4.40
2022-09-29T05:44:51.056Z,4.27
2022-09-29T05:47:37.820Z,4.37
2022-09-29T05:50:24.915Z,4.30
2022-09-29T05:53:12.438Z,3.97
2022-09-29T05:55:59.737Z,5.00
2022-09-29T05:58:46.449Z,5.23
2022-09-29T06:01:34.499Z,4.53
2022-09-29T06:04:21.570Z,5.17
2022-09-29T06:07:08.554Z,5.13
2022-09-29T06:09:55.892Z,5.63
2022-09-29T06:12:42.860Z,4.93
2022-09-29T06:15:29.703Z,4.77
2022-09-29T06:18:17.686Z,7.10
2022-09-29T06:21:05.785Z,5.70
2022-09-29T06:23:53.213Z,5.80
2022-09-29T06:26:40.121Z,5.10
2022-09-29T06:29:27.429Z,5.50
2022-09-29T06:32:14.518Z,5.40
2022-09-29T06:35:20.455Z,6.00
2022-09-29T06:38:07.650Z,5.20
2022-09-29T06:40:54.961Z,5.73
2022-09-29T06:43:41.947Z,4.80
2022-09-29T06:46:28.957Z,6.03
2022-09-29T06:49:16.750Z,4.53
2022-09-29T06:52:16.564Z,5.37
2022-09-29T06:55:07.676Z,4.23
2022-09-29T06:57:54.413Z,4.43
2022-09-29T07:00:43.993Z,4.87
2022-09-29T07:03:32.772Z,3.83
2022-09-29T07:06:20.536Z,4.23
2022-09-29T07:09:15.613Z,4.43
2022-09-29T07:12:02.835Z,3.53
2022-09-29T07:14:49.383Z,4.23
2022-09-29T07:17:36.491Z,4.27
2022-09-29T07:20:23.541Z,5.87
2022-09-29T07:23:10.528Z,6.63
2022-09-29T07:25:58.943Z,4.80
2022-09-29T07:28:46.335Z,4.47
2022-09-29T07:31:43.595Z,4.67
2022-09-29T07:34:34.672Z,4.40
2022-09-29T07:37:21.676Z,4.90
2022-09-29T07:40:09.143Z,4.70
2022-09-29T07:42:57.112Z,4.30
2022-09-29T07:45:48.119Z,4.70
2022-09-29T07:48:35.668Z,4.87
2022-09-29T07:51:22.980Z,4.37
2022-09-29T07:54:10.252Z,4.57
2022-09-29T07:56:57.584Z,4.10
2022-09-29T07:59:52.404Z,4.83
2022-09-29T08:02:40.317Z,4.63
2022-09-29T08:05:27.862Z,4.47
2022-09-29T08:08:14.773Z,4.83
2022-09-29T08:11:05.892Z,4.57
2022-09-29T08:13:54.118Z,5.20
2022-09-29T08:16:42.046Z,4.60
2022-09-29T08:19:29.138Z,4.57
2022-09-29T08:22:16.044Z,4.40
2022-09-29T08:25:03.119Z,4.30
2022-09-29T08:27:55.266Z,4.67
2022-09-29T08:30:42.456Z,4.20
2022-09-29T08:33:30.950Z,4.73
2022-09-29T08:36:18.138Z,4.73
2022-09-29T08:39:06.388Z,4.20
2022-09-29T08:41:55.133Z,3.93
2022-09-29T08:44:45.703Z,4.67
2022-09-29T08:47:46.480Z,4.10
2022-09-29T08:50:39.845Z,4.30
2022-09-29T08:53:29.592Z,4.50
2022-09-29T08:56:18.199Z,4.43
2022-09-29T08:59:05.296Z,4.47
2022-09-29T09:02:04.215Z,4.37
2022-09-29T09:05:13.575Z,4.60
2022-09-29T09:08:10.046Z,4.60
2022-09-29T09:11:01.378Z,4.83
2022-09-29T09:13:58.164Z,4.33
2022-09-29T09:16:49.348Z,4.23
2022-09-29T09:20:04.779Z,3.73
2022-09-29T09:22:55.881Z,3.93
2022-09-29T09:25:50.069Z,4.10
2022-09-29T09:28:37.941Z,3.90
2022-09-29T09:31:31.323Z,4.50
2022-09-29T09:34:21.211Z,3.70
2022-09-29T09:37:14.737Z,3.53
2022-09-29T09:40:05.085Z,3.93
2022-09-29T09:42:56.279Z,4.00
2022-09-29T09:45:48.662Z,3.70
2022-09-29T09:48:37.401Z,3.67
2022-09-29T09:51:34.658Z,3.47
2022-09-29T09:54:29.418Z,4.30
2022-09-29T09:57:35.030Z,3.73
2022-09-29T10:00:25.997Z,3.50
2022-09-29T10:03:14.411Z,3.53
2022-09-29T10:06:01.614Z,4.07
2022-09-29T10:08:48.413Z,3.80
2022-09-29T10:11:35.024Z,3.47
2022-09-29T10:14:25.958Z,3.87
2022-09-29T10:17:16.292Z,3.30
2022-09-29T10:20:05.578Z,2.97
2022-09-29T10:22:52.635Z,3.30
2022-09-29T10:25:39.426Z,2.57
2022-09-29T10:28:29.637Z,2.80
2022-09-29T10:31:24.338Z,3.00
2022-09-29T10:34:17.964Z,2.77
2022-09-29T10:37:06.497Z,2.60
2022-09-29T10:40:04.828Z,2.03
2022-09-29T10:42:53.468Z,2.33
2022-09-29T10:45:49.440Z,3.10
2022-09-29T10:48:36.420Z,3.40
2022-09-29T10:51:25.889Z,3.07
2022-09-29T10:54:17.817Z,3.00
2022-09-29T10:57:13.804Z,3.30
2022-09-29T11:00:01.422Z,3.13
2022-09-29T11:02:49.052Z,2.77
2022-09-29T11:05:36.756Z,2.63
2022-09-29T11:08:28.735Z,2.00
2022-09-29T11:11:20.997Z,2.33
2022-09-29T11:14:26.034Z,1.93
2022-09-29T11:17:24.828Z,1.93
2022-09-29T11:20:14.878Z,2.00
2022-09-29T11:23:16.248Z,1.90
2022-09-29T11:26:19.719Z,1.70
2022-09-29T11:29:12.186Z,2.20
2022-09-29T11:32:12.791Z,1.87
2022-09-29T11:35:06.270Z,2.20
2022-09-29T11:38:02.103Z,2.37
2022-09-29T11:40:54.131Z,2.20
2022-09-29T11:43:47.894Z,2.40
2022-09-29T11:46:47.603Z,2.50
2022-09-29T11:49:40.815Z,1.93
2022-09-29T11:52:47.507Z,1.77
2022-09-29T11:55:42.210Z,2.17
2022-09-29T11:58:41.161Z,2.20
2022-09-29T12:01:32.508Z,1.93
2022-09-29T12:04:28.585Z,2.03
2022-09-29T12:07:21.186Z,1.80
2022-09-29T12:10:32.268Z,1.80
2022-09-29T12:13:29.815Z,1.43
2022-09-29T12:16:18.140Z,1.70
2022-09-29T12:19:08.424Z,1.93
2022-09-29T12:21:56.947Z,2.30
2022-09-29T12:24:46.620Z,3.00
2022-09-29T12:27:35.212Z,2.60
2022-09-29T12:30:26.118Z,1.80
2022-09-29T12:33:17.064Z,1.83
2022-09-29T12:36:28.852Z,1.60
2022-09-29T12:39:26.017Z,2.00
2022-09-29T12:42:34.137Z,1.70
2022-09-29T12:45:24.379Z,1.67
2022-09-29T12:48:24.769Z,1.80
2022-09-29T12:51:15.184Z,1.40
2022-09-29T12:54:10.072Z,2.03
2022-09-29T12:57:03.089Z,1.80
2022-09-29T12:59:56.565Z,1.63
2022-09-29T13:02:56.331Z,2.00
2022-09-29T13:06:01.294Z,1.90
2022-09-29T13:08:58.236Z,2.03
2022-09-29T13:11:57.009Z,1.80
2022-09-29T13:15:19.655Z,1.90
2022-09-29T13:18:14.062Z,1.80
2022-09-29T13:21:06.279Z,2.00
2022-09-29T13:24:09.072Z,2.00
2022-09-29T13:27:14.980Z,2.00
2022-09-29T13:30:04.836Z,2.13
2022-09-29T13:32:55.948Z,1.97
2022-09-29T13:35:44.486Z,1.80
2022-09-29T13:38:33.304Z,1.90
2022-09-29T13:41:38.813Z,2.07
2022-09-29T13:44:27.623Z,1.90
2022-09-29T13:47:33.525Z,1.60
2022-09-29T13:50:43.455Z,1.90
2022-09-29T13:53:36.168Z,1.73
2022-09-29T13:56:24.135Z,1.63
2022-09-29T13:59:15.463Z,2.00
2022-09-29T14:02:03.096Z,1.90
2022-09-29T14:04:55.922Z,1.67
2022-09-29T14:07:47.375Z,1.80
2022-09-29T14:10:39.749Z,1.83
2022-09-29T14:13:30.043Z,1.80
2022-09-29T14:16:32.051Z,2.00
2022-09-29T14:19:26.409Z,1.80
2022-09-29T14:22:49.620Z,1.93
2022-09-29T14:25:55.397Z,2.30
2022-09-29T14:28:44.595Z,1.83
2022-09-29T14:31:32.444Z,2.03
2022-09-29T14:34:22.464Z,1.93
2022-09-29T14:37:18.341Z,2.03
2022-09-29T14:40:26.405Z,2.17
2022-09-29T14:43:14.769Z,2.33
2022-09-29T14:46:34.364Z,2.50
2022-09-29T14:49:52.167Z,2.27
2022-09-29T14:52:45.353Z,2.20
2022-09-29T14:55:37.957Z,2.00
2022-09-29T14:58:29.827Z,1.90
2022-09-29T15:01:22.904Z,6.00
2022-09-29T15:04:13.087Z,2.47
2022-09-29T15:07:05.784Z,2.40
2022-09-29T15:09:54.007Z,2.40
2022-09-29T15:12:41.230Z,2.10
2022-09-29T15:15:38.098Z,1.87
2022-09-29T15:18:38.085Z,2.37
2022-09-29T15:21:34.052Z,2.43
2022-09-29T15:24:30.465Z,2.40
2022-09-29T15:27:17.629Z,2.00
2022-09-29T15:30:05.159Z,2.10
2022-09-29T15:32:52.823Z,2.20
2022-09-29T15:35:44.460Z,2.33
2022-09-29T15:38:34.536Z,2.33
2022-09-29T15:41:28.962Z,2.03
2022-09-29T15:44:20.846Z,2.07
2022-09-29T15:47:08.166Z,2.00
2022-09-29T15:49:55.356Z,2.47
2022-09-29T15:52:42.775Z,2.30
2022-09-29T15:55:30.598Z,2.20
2022-09-29T15:58:39.024Z,2.57
2022-09-29T16:01:25.774Z,2.07
2022-09-29T16:04:13.113Z,2.23
2022-09-29T16:07:00.214Z,2.93
2022-09-29T16:09:47.161Z,2.33
2022-09-29T16:12:36.524Z,2.30
2022-09-29T16:15:31.083Z,2.10
2022-09-29T16:18:20.663Z,2.20
2022-09-29T16:21:10.106Z,2.03
2022-09-29T16:24:04.187Z,2.10
2022-09-29T16:26:52.395Z,2.30
2022-09-29T16:29:39.354Z,1.73
2022-09-29T16:32:42.979Z,2.00
2022-09-29T16:35:41.452Z,2.30
2022-09-29T16:38:39.996Z,2.10
2022-09-29T16:41:35.523Z,1.87
2022-09-29T16:44:26.630Z,3.27
2022-09-29T16:47:16.010Z,1.93
2022-09-29T16:50:05.934Z,4.40
2022-09-29T16:52:53.053Z,2.10
2022-09-29T16:55:40.895Z,2.07
2022-09-29T16:58:28.283Z,2.70
2022-09-29T17:01:15.416Z,2.47
2022-09-29T17:04:02.749Z,1.90
2022-09-29T17:06:50.751Z,2.40
2022-09-29T17:09:38.742Z,2.10
2022-09-29T17:12:26.513Z,2.93
2022-09-29T17:15:14.766Z,2.90
2022-09-29T17:18:03.208Z,2.37
2022-09-29T17:20:49.899Z,2.43
2022-09-29T17:23:38.327Z,3.80
2022-09-29T17:26:46.271Z,3.63
2022-09-29T17:29:33.475Z,2.40
2022-09-29T17:32:20.793Z,3.87
2022-09-29T17:35:08.757Z,2.93
2022-09-29T17:37:56.174Z,2.53
2022-09-29T17:40:49.797Z,2.07
2022-09-29T17:43:36.882Z,2.40
2022-09-29T17:46:23.966Z,2.40
2022-09-29T17:49:13.596Z,2.33
2022-09-29T17:52:00.551Z,2.90
2022-09-29T17:54:48.200Z,2.20
2022-09-29T17:57:36.591Z,3.03
2022-09-29T18:00:25.350Z,2.50
2022-09-29T18:03:13.232Z,2.40
2022-09-29T18:06:00.647Z,3.07
2022-09-29T18:08:50.370Z,2.53
2022-09-29T18:11:40.080Z,2.83
2022-09-29T18:14:30.057Z,3.17
2022-09-29T18:17:17.535Z,3.50
2022-09-29T18:20:11.139Z,3.03
2022-09-29T18:22:59.029Z,6.47
2022-09-29T18:25:47.861Z,3.53
2022-09-29T18:28:34.998Z,3.63
2022-09-29T18:31:26.567Z,5.30
2022-09-29T18:34:16.493Z,4.07
2022-09-29T18:37:03.276Z,3.23
2022-09-29T18:39:50.310Z,3.60
2022-09-29T18:42:41.109Z,3.13
2022-09-29T18:45:30.897Z,3.50
2022-09-29T18:48:19.270Z,3.40
2022-09-29T18:51:06.143Z,3.87
2022-09-29T18:53:53.299Z,4.00
2022-09-29T18:56:40.913Z,3.83
2022-09-29T18:59:28.120Z,4.27
2022-09-29T19:02:15.281Z,4.77
2022-09-29T19:05:03.508Z,4.43
2022-09-29T19:07:51.126Z,4.50
2022-09-29T19:10:40.503Z,4.20
2022-09-29T19:13:29.046Z,5.20
2022-09-29T19:16:15.985Z,3.93
2022-09-29T19:19:04.362Z,3.77
2022-09-29T19:21:52.634Z,4.60
2022-09-29T19:24:39.486Z,5.30
2022-09-29T19:27:26.548Z,5.60
2022-09-29T19:30:14.326Z,4.73
2022-09-29T19:33:01.158Z,7.93
2022-09-29T19:35:50.558Z,6.50
2022-09-29T19:38:40.028Z,4.43
2022-09-29T19:41:26.803Z,5.13
2022-09-29T19:44:13.739Z,5.40
2022-09-29T19:47:01.372Z,5.50
2022-09-29T19:49:48.417Z,5.37
2022-09-29T19:52:34.468Z,4.83
2022-09-29T19:55:23.164Z,5.17
2022-09-29T19:58:10.152Z,5.00
2022-09-29T20:00:59.805Z,5.23
2022-09-29T20:03:47.958Z,5.70
2022-09-29T20:06:35.999Z,5.30
2022-09-29T20:09:23.360Z,5.40
2022-09-29T20:12:17.127Z,5.27
2022-09-29T20:15:07.212Z,5.23
2022-09-29T20:17:54.370Z,6.60
2022-09-29T20:20:42.283Z,5.43
2022-09-29T20:23:29.343Z,5.70
2022-09-29T20:26:16.584Z,5.43
2022-09-29T20:29:04.754Z,5.33
2022-09-29T20:31:53.381Z,5.50
2022-09-29T20:34:40.215Z,5.10
2022-09-29T20:37:28.026Z,5.53
2022-09-29T20:40:14.784Z,4.80
2022-09-29T20:43:01.754Z,5.53
2022-09-29T20:45:50.222Z,5.13
2022-09-29T20:48:37.648Z,5.13
2022-09-29T20:51:25.615Z,4.90
2022-09-29T20:54:13.240Z,5.27
2022-09-29T20:57:00.394Z,5.57
2022-09-29T20:59:47.300Z,5.00
2022-09-29T21:02:35.551Z,5.00
2022-09-29T21:05:22.544Z,5.27
2022-09-29T21:08:09.711Z,4.93
2022-09-29T21:11:00.283Z,4.60
2022-09-29T21:13:48.037Z,5.10
2022-09-29T21:16:34.965Z,5.27
2022-09-29T21:19:25.829Z,4.87
2022-09-29T21:22:13.082Z,5.10
2022-09-29T21:25:00.313Z,4.63
2022-09-29T21:27:46.829Z,4.83
2022-09-29T21:30:33.552Z,5.30
2022-09-29T21:33:20.761Z,4.80
2022-09-29T21:36:10.672Z,4.60
2022-09-29T21:38:58.303Z,5.60
2022-09-29T21:41:45.889Z,5.07
2022-09-29T21:44:55.917Z,5.33
2022-09-29T21:48:02.452Z,5.57
2022-09-29T21:50:49.587Z,4.73
2022-09-29T21:53:38.601Z,4.93
2022-09-29T21:56:26.261Z,5.13
2022-09-29T21:59:14.125Z,4.73
2022-09-29T22:02:00.966Z,5.17
2022-09-29T22:04:47.807Z,4.80
2022-09-29T22:07:34.902Z,4.80
2022-09-29T22:10:23.077Z,5.20
2022-09-29T22:13:09.898Z,5.00
2022-09-29T22:16:04.352Z,4.60
2022-09-29T22:19:11.717Z,5.20
2022-09-29T22:21:58.124Z,5.13
2022-09-29T22:24:45.138Z,4.43
2022-09-29T22:27:33.492Z,5.40
2022-09-29T22:30:21.312Z,4.70
2022-09-29T22:33:08.383Z,5.60
2022-09-29T22:35:58.934Z,5.47
2022-09-29T22:38:45.550Z,5.57
2022-09-29T22:41:33.213Z,4.97
2022-09-29T22:44:21.350Z,5.83
2022-09-29T22:47:08.081Z,5.37
2022-09-29T22:49:54.986Z,5.77
2022-09-29T22:52:42.250Z,5.00
2022-09-29T22:55:30.179Z,5.07
2022-09-29T22:58:17.296Z,5.03
2022-09-29T23:01:07.180Z,4.53
2022-09-29T23:03:54.334Z,4.07
2022-09-29T23:06:41.405Z,4.17
2022-09-29T23:09:28.449Z,4.63
2022-09-29T23:12:15.350Z,5.00
2022-09-29T23:15:02.399Z,4.80
2022-09-29T23:17:51.216Z,4.63
2022-09-29T23:20:37.949Z,4.70
2022-09-29T23:23:25.083Z,4.40
2022-09-29T23:26:12.167Z,4.50
2022-09-29T23:28:59.823Z,4.90
2022-09-29T23:31:49.577Z,4.00
2022-09-29T23:34:38.188Z,4.90
2022-09-29T23:37:45.232Z,3.70
2022-09-29T23:40:30.903Z,4.27
2022-09-29T23:43:17.954Z,4.23
2022-09-29T23:46:04.800Z,4.00
2022-09-29T23:48:51.956Z,4.17
2022-09-29T23:51:41.180Z,4.37
2022-09-29T23:54:29.286Z,4.00
2022-09-29T23:57:16.019Z,5.27
